Aérodrome :
LOGIN :

S'inscrire | Disclaimer

   EN    FR    IT 

 










Légende :    VFR   VFR Marginal   IFR   IFR Intensif   IFR Très Intensif
Visi : 
Plafond : 
>= 8 km
>= 3000ft
5 à 8 km
1000 à 3000 ft
1500m à 5 km
500 à 1000 ft
800 à 1500m
200 à 500 ft
< 800m
< 200 ft
Symboles :   Orages  Brouillard  Fortes neiges  Fortes précipitations  Vent > 20 kt
SIGMETs :   Divers  Orages  Givrage  Turbulence  Onde Orograph.  Cendres Volcan.







- Altitude de l'aérodrome : 129 ft
- Code IATA : ZCN


ETHC - Celle

DERNIER METAR :
  • 261720Z 00000KT 9999 FEW040 SCT080 08/M02 Q1012 BLU+

METARs EXPIRÉS :
  • 261620Z VRB03KT 9999 SCT040TCU SCT080 07/M01 Q1012 BLU+FCST CANCEL
  • 261520Z 28006KT 9999 -SHRA SCT042TCU SCT080 09/M02 Q1012 BLU+BLU+ TEMPO BLU

TAF AMD TAF ETHC
Valide du 26 à 14h jusqu'au 26 à 23h UTC


261608Z 2614/2623 27005KT 9999 NSW SCT050 SCT090
PROB30 2614/2619 27010G20KT 9999 SHRA BKN040CB CANCEL 1630
Pas de NOTAMs connus pour ce terrain.



MET'MAP, la Météo Aéronautique d'un coup d'oeil ! - Copyright ORBIFLY Décembre 2007 - Disclaimer

ORBIFLY MET'MAP TEAM :

Programmation & Développement : Alexandra Zaïnal
Conception & Développement : Baudouin d'Aumeries
Co-Programmation & Développement : Marc-Olivier Méhu
Soutien technique & logistique : Manuel Goepfert

Contact : metmap@orbifly.com




SOURCES & CREDITS :

   NOAA